Time;durP1;ratioP1;P1;durP2;ratioP2;P2;SDS_P1;SDS_P2;PMS_P1;PMS_P2;Temp;Humidity;BMP_temperature;BMP_pressure;BME280_temperature;BME280_humidity;BME280_pressure;Samples;Min_cycle;Max_cycle;Signal;HPM_P1;HPM_P2
2021/07/19 00:01:41;;;;;;;11.80;5.82;;;16.20;88.00;;;;;;4975591;28;20070;-73
2021/07/19 00:04:07;;;;;;;8.40;5.00;;;16.20;86.60;;;;;;4973737;28;20042;-73
2021/07/19 00:06:33;;;;;;;10.95;5.68;;;15.50;87.10;;;;;;4976443;28;20105;-75
2021/07/19 00:08:58;;;;;;;10.43;5.55;;;15.60;88.40;;;;;;4975309;28;20061;-74
2021/07/19 00:11:24;;;;;;;10.90;5.03;;;15.60;87.80;;;;;;4977314;28;20060;-73
2021/07/19 00:13:50;;;;;;;11.07;6.18;;;15.40;86.80;;;;;;4976066;28;20042;-73
2021/07/19 00:16:16;;;;;;;13.00;6.65;;;15.40;89.60;;;;;;4983296;28;20038;-73
2021/07/19 00:18:41;;;;;;;14.65;6.82;;;15.60;90.10;;;;;;4981078;28;20038;-73
2021/07/19 00:21:07;;;;;;;14.07;6.97;;;15.70;90.00;;;;;;4979217;28;20034;-74
2021/07/19 00:23:33;;;;;;;10.43;7.43;;;15.70;89.90;;;;;;4979941;28;20062;-74
2021/07/19 00:25:59;;;;;;;9.73;6.38;;;15.80;89.90;;;;;;4978413;28;20038;-73
2021/07/19 00:28:24;;;;;;;9.68;5.95;;;15.80;89.30;;;;;;4979063;28;20377;-74
2021/07/19 00:30:50;;;;;;;8.48;4.72;;;15.80;89.00;;;;;;4979546;28;20058;-74
2021/07/19 00:33:17;;;;;;;6.32;4.68;;;15.70;86.50;;;;;;4972511;28;20069;-74
2021/07/19 00:35:43;;;;;;;10.75;6.00;;;15.70;86.60;;;;;;4977145;28;20019;-74
2021/07/19 00:38:09;;;;;;;12.77;7.03;;;15.70;86.60;;;;;;4996655;28;20996;-74
2021/07/19 00:40:37;;;;;;;12.13;6.70;;;15.60;88.70;;;;;;4978821;28;20026;-73
2021/07/19 00:43:07;;;;;;;8.55;4.70;;;15.60;88.70;;;;;;4972687;28;20050;-73
2021/07/19 00:45:33;;;;;;;10.40;5.80;;;15.70;87.60;;;;;;4976429;28;20069;-73
2021/07/19 00:48:01;;;;;;;14.50;7.00;;;15.70;88.10;;;;;;4980249;28;20058;-74
2021/07/19 00:50:29;;;;;;;13.23;7.05;;;15.70;88.60;;;;;;4981049;28;20474;-73
2021/07/19 00:52:59;;;;;;;;;;;15.70;88.60;;;;;;4982175;28;20039;-73
2021/07/19 00:55:46;;;;;;;10.77;6.28;;;15.60;89.10;;;;;;4975894;28;19991;-75
2021/07/19 00:58:14;;;;;;;11.52;6.88;;;15.60;88.10;;;;;;4979754;28;20619;-73
2021/07/19 01:00:46;;;;;;;15.10;7.38;;;15.60;88.60;;;;;;4993774;28;20053;-73
2021/07/19 01:03:13;;;;;;;14.55;6.57;;;15.70;88.60;;;;;;4981835;28;20657;-74
2021/07/19 01:05:41;;;;;;;11.77;7.50;;;15.60;88.60;;;;;;4981199;28;20031;-74
2021/07/19 01:08:08;;;;;;;18.67;7.38;;;15.50;89.30;;;;;;4981804;28;20033;-74
2021/07/19 01:10:35;;;;;;;13.85;7.28;;;15.60;89.30;;;;;;4980674;28;20026;-74
2021/07/19 01:13:01;;;;;;;13.68;6.80;;;15.60;89.20;;;;;;4980385;28;20065;-73
2021/07/19 01:15:30;;;;;;;14.48;7.72;;;15.60;88.90;;;;;;4979743;28;20033;-73
2021/07/19 01:17:55;;;;;;;;;;;15.60;88.60;;;;;;4984509;28;20504;-73
2021/07/19 01:20:34;;;;;;;11.10;6.53;;;15.60;88.60;;;;;;4980947;28;20372;-73
2021/07/19 01:23:25;;;;;;;7.45;4.55;;;15.60;88.30;;;;;;4984031;28;20030;-73
2021/07/19 01:26:09;;;;;;;9.40;4.80;;;15.40;84.90;;;;;;4979207;28;20062;-73
2021/07/19 01:28:43;;;;;;;13.07;5.95;;;15.20;86.20;;;;;;4996017;28;20519;-74
2021/07/19 01:31:24;;;;;;;12.82;6.35;;;15.30;87.40;;;;;;4981475;28;20085;-73
2021/07/19 01:34:12;;;;;;;6.57;4.15;;;15.30;87.10;;;;;;4982165;28;20026;-73
2021/07/19 01:36:44;;;;;;;8.23;4.55;;;15.20;86.00;;;;;;4983122;28;20054;-73
2021/07/19 01:39:11;;;;;;;9.63;5.20;;;15.10;86.50;;;;;;4982426;28;20038;-74
2021/07/19 01:41:38;;;;;;;9.70;6.15;;;15.10;87.80;;;;;;4983451;28;20029;-73
2021/07/19 01:44:06;;;;;;;9.90;5.53;;;15.00;88.30;;;;;;4983149;28;20038;-73
2021/07/19 01:46:33;;;;;;;7.35;4.40;;;15.10;88.30;;;;;;4981535;28;19914;-74
2021/07/19 01:48:59;;;;;;;7.32;4.57;;;15.00;87.50;;;;;;4976075;28;20602;-73
2021/07/19 01:51:26;;;;;;;9.30;4.50;;;14.90;88.20;;;;;;4981350;28;20073;-74
2021/07/19 01:53:53;;;;;;;10.15;5.50;;;14.90;88.20;;;;;;4984468;28;20493;-74
2021/07/19 01:56:20;;;;;;;9.57;5.82;;;14.90;88.70;;;;;;4984724;28;21855;-74
2021/07/19 01:58:46;;;;;;;11.02;5.85;;;14.80;89.40;;;;;;4984064;28;20034;-73
2021/07/19 02:01:13;;;;;;;14.85;6.95;;;14.80;89.00;;;;;;4980757;28;21620;-73
2021/07/19 02:03:39;;;;;;;10.05;6.05;;;14.80;90.30;;;;;;4980333;28;20033;-73
2021/07/19 02:06:07;;;;;;;13.13;6.65;;;14.70;90.20;;;;;;4981004;28;20031;-72
2021/07/19 02:08:37;;;;;;;11.07;6.30;;;14.70;90.00;;;;;;4979796;28;20022;-73
2021/07/19 02:11:04;;;;;;;12.48;6.75;;;14.70;90.20;;;;;;4993862;28;20381;-73
2021/07/19 02:13:32;;;;;;;13.60;6.57;;;14.70;90.60;;;;;;4979335;28;20121;-73
2021/07/19 02:15:59;;;;;;;5.00;3.50;;;14.80;90.30;;;;;;4985157;28;20030;-72
2021/07/19 02:18:26;;;;;;;10.57;5.20;;;14.70;88.90;;;;;;4980315;28;20408;-73
2021/07/19 02:20:55;;;;;;;7.78;4.47;;;14.70;88.70;;;;;;4975433;28;20097;-74
2021/07/19 02:23:22;;;;;;;6.00;4.15;;;14.60;87.60;;;;;;4976378;28;20517;-74
2021/07/19 02:25:52;;;;;;;5.07;3.50;;;14.50;87.60;;;;;;4985080;28;20033;-74
2021/07/19 02:28:18;;;;;;;6.28;3.95;;;14.40;88.40;;;;;;4981538;28;20117;-74
2021/07/19 02:30:45;;;;;;;5.68;3.97;;;14.40;88.20;;;;;;4982137;28;20042;-73
2021/07/19 02:33:12;;;;;;;6.20;4.03;;;14.40;88.40;;;;;;4984130;28;20064;-74
2021/07/19 02:35:41;;;;;;;7.55;4.35;;;14.50;88.40;;;;;;4981453;28;20034;-74
2021/07/19 02:38:09;;;;;;;7.35;3.92;;;14.50;88.20;;;;;;4986347;28;20033;-73
2021/07/19 02:40:36;;;;;;;6.70;4.05;;;14.50;87.90;;;;;;4981512;28;20126;-73
2021/07/19 02:43:06;;;;;;;9.65;5.72;;;14.50;87.90;;;;;;4978960;28;20034;-73
2021/07/19 02:45:36;;;;;;;8.65;4.80;;;14.50;88.90;;;;;;4982776;28;20053;-73
2021/07/19 02:48:05;;;;;;;10.98;5.57;;;14.50;88.80;;;;;;4980915;28;20122;-73
2021/07/19 02:50:31;;;;;;;11.30;5.88;;;14.50;88.60;;;;;;4982144;28;20706;-74
2021/07/19 02:52:59;;;;;;;10.32;5.85;;;14.50;89.10;;;;;;4983407;28;20042;-74
2021/07/19 02:55:26;;;;;;;;;;;14.50;89.30;;;;;;4980953;28;20762;-74
2021/07/19 02:57:52;;;;;;;9.32;5.60;;;14.50;89.80;;;;;;4998887;28;19918;-73
2021/07/19 03:00:18;;;;;;;11.20;5.78;;;14.40;89.90;;;;;;4978239;28;20038;-74
2021/07/19 03:02:51;;;;;;;10.57;5.35;;;14.40;89.60;;;;;;4977506;28;20031;-74
2021/07/19 03:05:19;;;;;;;9.65;5.72;;;14.40;90.00;;;;;;4982181;28;20064;-74
2021/07/19 03:07:47;;;;;;;;;;;14.40;90.20;;;;;;4979396;28;20018;-73
2021/07/19 03:10:15;;;;;;;16.10;5.88;;;14.40;90.40;;;;;;4980886;28;19956;-73
2021/07/19 03:12:42;;;;;;;8.45;5.43;;;14.40;89.70;;;;;;4983245;28;20034;-73
2021/07/19 03:15:09;;;;;;;8.13;4.80;;;14.40;90.10;;;;;;4982330;28;20034;-73
2021/07/19 03:17:38;;;;;;;10.23;6.60;;;14.40;90.00;;;;;;4983155;28;20030;-74
2021/07/19 03:20:07;;;;;;;10.50;5.57;;;14.30;89.90;;;;;;4975881;28;20038;-73
2021/07/19 03:22:37;;;;;;;11.30;6.45;;;14.40;90.20;;;;;;4992583;28;20117;-74
2021/07/19 03:25:04;;;;;;;11.98;5.97;;;14.40;90.20;;;;;;4978890;28;20031;-75
2021/07/19 03:27:31;;;;;;;10.95;6.10;;;14.40;90.20;;;;;;4973942;28;20154;-74
2021/07/19 03:29:57;;;;;;;9.57;5.50;;;14.40;90.00;;;;;;4976226;28;20134;-74
2021/07/19 03:32:24;;;;;;;6.25;3.97;;;14.40;90.10;;;;;;4976954;28;20038;-74
2021/07/19 03:34:51;;;;;;;5.43;3.38;;;14.30;89.40;;;;;;4978485;28;20081;-74
2021/07/19 03:37:18;;;;;;;5.35;4.00;;;14.20;88.80;;;;;;4979568;28;20023;-74
2021/07/19 03:39:44;;;;;;;7.95;4.30;;;14.10;89.40;;;;;;4978945;28;20110;-74
2021/07/19 03:42:12;;;;;;;6.05;4.15;;;14.00;89.90;;;;;;4990660;28;20785;-74
2021/07/19 03:44:40;;;;;;;6.05;4.28;;;14.10;90.00;;;;;;4977162;28;20117;-74
2021/07/19 03:47:09;;;;;;;6.23;3.53;;;14.10;90.20;;;;;;4978177;28;20026;-74
2021/07/19 03:49:36;;;;;;;6.53;4.28;;;14.10;89.80;;;;;;4981579;28;20139;-74
2021/07/19 03:52:03;;;;;;;5.43;3.50;;;14.10;89.80;;;;;;4974299;28;20496;-74
2021/07/19 03:54:29;;;;;;;5.15;3.72;;;14.10;89.60;;;;;;4974088;28;20122;-73
2021/07/19 03:56:55;;;;;;;6.18;3.28;;;14.00;89.70;;;;;;4984044;28;20531;-73
2021/07/19 03:59:23;;;;;;;6.90;4.30;;;14.10;89.90;;;;;;4979179;28;20026;-73
2021/07/19 04:01:50;;;;;;;6.05;4.15;;;14.10;90.00;;;;;;4979025;28;20400;-74
2021/07/19 04:04:19;;;;;;;6.75;4.35;;;14.20;90.00;;;;;;4976321;28;20492;-74
2021/07/19 04:06:46;;;;;;;7.80;4.25;;;14.20;90.10;;;;;;4978504;28;20114;-72
2021/07/19 04:09:12;;;;;;;6.05;4.40;;;14.20;90.10;;;;;;4975992;28;20057;-73
2021/07/19 04:11:39;;;;;;;9.10;4.90;;;14.20;90.00;;;;;;4974910;28;20046;-72
2021/07/19 04:14:10;;;;;;;10.45;4.53;;;14.30;90.00;;;;;;4979842;28;20089;-74
2021/07/19 04:16:36;;;;;;;6.85;4.13;;;14.40;90.00;;;;;;4979621;28;20590;-74
2021/07/19 04:19:01;;;;;;;10.43;5.07;;;14.30;90.00;;;;;;4978911;28;20028;-73
2021/07/19 04:21:27;;;;;;;7.95;4.72;;;14.40;90.00;;;;;;4973213;28;20590;-73
2021/07/19 04:23:53;;;;;;;8.27;5.18;;;14.50;89.70;;;;;;4978832;28;20080;-73
2021/07/19 04:26:19;;;;;;;9.40;5.53;;;14.50;90.00;;;;;;4978562;28;20026;-72
2021/07/19 04:28:45;;;;;;;5.45;4.28;;;14.60;90.10;;;;;;4973686;28;20040;-73
2021/07/19 04:31:16;;;;;;;6.60;4.65;;;14.50;89.30;;;;;;4976551;28;20524;-73
2021/07/19 04:33:49;;;;;;;7.93;4.90;;;14.50;89.40;;;;;;4978017;28;20148;-73
2021/07/19 04:36:17;;;;;;;9.52;4.93;;;14.60;89.70;;;;;;4978180;28;20586;-73
2021/07/19 04:38:46;;;;;;;8.65;5.30;;;14.60;90.00;;;;;;4978974;28;20038;-74
2021/07/19 04:41:15;;;;;;;11.55;5.63;;;14.60;90.00;;;;;;4984217;28;20038;-73
2021/07/19 04:43:41;;;;;;;10.38;5.63;;;14.60;90.10;;;;;;4996999;28;20041;-73
2021/07/19 04:46:06;;;;;;;9.70;6.65;;;14.70;90.10;;;;;;4998698;28;20030;-72
2021/07/19 04:48:32;;;;;;;9.88;5.63;;;14.70;90.00;;;;;;4995468;28;20163;-73
2021/07/19 04:50:58;;;;;;;9.15;5.78;;;14.80;90.10;;;;;;4982947;28;20511;-73
2021/07/19 04:53:24;;;;;;;12.00;5.93;;;14.80;90.40;;;;;;4984245;28;20022;-73
2021/07/19 04:55:53;;;;;;;8.95;5.85;;;14.90;90.10;;;;;;4977880;28;20057;-73
2021/07/19 04:58:23;;;;;;;12.73;6.35;;;15.00;90.30;;;;;;4977760;28;20659;-73
2021/07/19 05:00:58;;;;;;;9.75;5.65;;;15.00;90.10;;;;;;4974118;28;20133;-73
2021/07/19 05:03:27;;;;;;;13.18;6.22;;;15.10;90.00;;;;;;4979215;28;20066;-74
2021/07/19 05:05:54;;;;;;;11.93;6.68;;;15.20;89.80;;;;;;4983044;28;20065;-73
2021/07/19 05:08:22;;;;;;;12.67;7.60;;;15.30;89.60;;;;;;4980426;28;20025;-74
2021/07/19 05:10:50;;;;;;;13.68;6.85;;;15.40;90.10;;;;;;4978907;28;20034;-72
2021/07/19 05:13:17;;;;;;;11.90;6.00;;;15.40;90.00;;;;;;4978423;28;20034;-73
2021/07/19 05:15:44;;;;;;;10.60;6.63;;;15.50;90.20;;;;;;4976772;28;20535;-74
2021/07/19 05:18:10;;;;;;;11.48;6.55;;;15.50;90.40;;;;;;4980534;28;20042;-72
2021/07/19 05:20:37;;;;;;;14.07;7.57;;;15.60;90.40;;;;;;4979417;28;20035;-73
2021/07/19 05:23:03;;;;;;;13.95;7.35;;;15.70;90.40;;;;;;4977325;28;20547;-74
2021/07/19 05:25:32;;;;;;;12.73;6.70;;;15.80;90.30;;;;;;4985818;28;20034;-73
2021/07/19 05:28:13;;;;;;;;;;;15.80;90.40;;;;;;4981615;28;20069;-73
2021/07/19 05:30:44;;;;;;;21.55;7.07;;;15.90;90.60;;;;;;4979395;28;19928;-71
2021/07/19 05:33:12;;;;;;;16.08;7.80;;;16.00;90.60;;;;;;4981145;28;20579;-73
2021/07/19 05:35:39;;;;;;;15.45;7.60;;;16.00;90.60;;;;;;4978440;28;20026;-72
2021/07/19 05:38:05;;;;;;;11.13;6.88;;;16.00;90.70;;;;;;4975247;28;20488;-73
2021/07/19 05:40:31;;;;;;;14.18;8.50;;;16.10;90.70;;;;;;4976307;28;20030;-73
2021/07/19 05:43:02;;;;;;;13.20;7.30;;;16.20;90.70;;;;;;4974605;28;20654;-73
2021/07/19 05:45:28;;;;;;;14.57;7.95;;;16.30;90.80;;;;;;4983420;28;20034;-73
2021/07/19 05:47:54;;;;;;;10.65;6.65;;;16.40;90.40;;;;;;4964846;28;20424;-74
2021/07/19 05:50:21;;;;;;;13.13;7.38;;;16.50;90.00;;;;;;4984411;28;20193;-72
2021/07/19 05:52:47;;;;;;;13.27;7.15;;;16.60;90.10;;;;;;4984333;28;20101;-73
2021/07/19 05:55:13;;;;;;;12.25;7.30;;;16.60;90.00;;;;;;4979597;28;20061;-73
2021/07/19 05:57:39;;;;;;;13.40;7.75;;;16.70;90.50;;;;;;4981321;28;20515;-73
2021/07/19 06:00:11;;;;;;;15.18;7.60;;;16.80;90.50;;;;;;4985720;28;20034;-73
2021/07/19 06:02:37;;;;;;;16.85;7.70;;;16.90;90.00;;;;;;4982954;28;20038;-73
2021/07/19 06:05:06;;;;;;;13.35;7.53;;;17.00;90.30;;;;;;4986141;28;20069;-71
2021/07/19 06:07:33;;;;;;;13.93;7.63;;;17.10;90.40;;;;;;4985607;28;20108;-72
2021/07/19 06:09:58;;;;;;;16.60;8.02;;;17.30;90.30;;;;;;4979788;28;20041;-72
2021/07/19 06:12:24;;;;;;;12.02;7.53;;;17.30;90.00;;;;;;4983186;28;20031;-73
2021/07/19 06:14:50;;;;;;;13.43;7.75;;;17.50;89.20;;;;;;4980276;28;20026;-73
2021/07/19 06:17:16;;;;;;;13.68;7.82;;;17.50;89.00;;;;;;4982853;28;20511;-73
2021/07/19 06:19:42;;;;;;;13.80;7.13;;;17.70;88.80;;;;;;4980451;28;20034;-73
2021/07/19 06:22:11;;;;;;;14.40;6.95;;;17.80;89.00;;;;;;4986487;28;20037;-72
2021/07/19 06:24:38;;;;;;;12.68;6.97;;;17.80;88.30;;;;;;4975928;28;20034;-72
2021/07/19 06:27:05;;;;;;;13.70;7.50;;;17.90;88.60;;;;;;4982766;28;20118;-70
2021/07/19 06:29:31;;;;;;;13.40;7.20;;;18.00;89.30;;;;;;4983533;28;20102;-72
2021/07/19 06:31:57;;;;;;;12.82;6.85;;;18.10;89.10;;;;;;4979724;28;20088;-73
2021/07/19 06:34:22;;;;;;;13.98;6.97;;;18.20;88.40;;;;;;4973161;28;20657;-73
2021/07/19 06:36:49;;;;;;;13.65;6.90;;;18.30;88.30;;;;;;4974339;28;20031;-72
2021/07/19 06:39:15;;;;;;;11.35;6.70;;;18.40;88.50;;;;;;4977706;28;20178;-71
2021/07/19 06:41:40;;;;;;;12.07;7.25;;;18.50;88.60;;;;;;4979552;28;20073;-72
2021/07/19 06:44:06;;;;;;;13.40;6.97;;;18.70;88.20;;;;;;4977239;28;20454;-72
2021/07/19 06:46:32;;;;;;;13.25;7.00;;;18.80;87.90;;;;;;4979469;28;20022;-73
2021/07/19 06:48:58;;;;;;;13.32;7.93;;;18.90;87.00;;;;;;4975338;28;20038;-72
2021/07/19 06:51:23;;;;;;;11.82;7.30;;;19.00;88.00;;;;;;4975457;28;20022;-72
2021/07/19 06:53:49;;;;;;;8.98;6.25;;;19.10;87.10;;;;;;4979637;28;20477;-73
2021/07/19 06:56:15;;;;;;;11.27;6.40;;;19.30;86.80;;;;;;4979327;28;20026;-71
2021/07/19 06:58:40;;;;;;;10.07;6.18;;;19.30;85.70;;;;;;4980121;28;20034;-71
2021/07/19 07:01:06;;;;;;;11.45;6.68;;;19.40;85.30;;;;;;4978447;28;20615;-72
2021/07/19 07:03:32;;;;;;;10.15;6.28;;;19.60;87.10;;;;;;4981339;28;20680;-72
2021/07/19 07:05:58;;;;;;;9.15;6.28;;;19.70;84.30;;;;;;4981676;28;20035;-69
2021/07/19 07:08:24;;;;;;;10.57;6.30;;;19.70;85.50;;;;;;4975688;28;20030;-72
2021/07/19 07:10:52;;;;;;;11.88;5.93;;;19.90;84.70;;;;;;4976060;28;20030;-72
2021/07/19 07:13:17;;;;;;;10.48;6.40;;;20.00;84.10;;;;;;4978120;28;20092;-72
2021/07/19 07:15:43;;;;;;;9.80;6.10;;;20.10;84.20;;;;;;4984629;28;20549;-71
2021/07/19 07:18:09;;;;;;;9.70;6.70;;;20.20;82.70;;;;;;4981797;28;20031;-72
2021/07/19 07:20:37;;;;;;;7.88;5.30;;;20.30;83.20;;;;;;4978109;28;20030;-70
2021/07/19 07:23:04;;;;;;;8.32;5.80;;;20.40;81.80;;;;;;4980734;28;20049;-72
2021/07/19 07:25:30;;;;;;;7.35;5.35;;;20.50;83.00;;;;;;4975617;28;20406;-70
2021/07/19 07:27:56;;;;;;;9.00;5.90;;;20.60;81.20;;;;;;4974908;28;20037;-72
2021/07/19 07:30:22;;;;;;;7.45;5.30;;;20.70;82.00;;;;;;4978444;28;21333;-71
2021/07/19 07:32:48;;;;;;;9.70;5.50;;;20.80;78.20;;;;;;4980288;28;20034;-72
2021/07/19 07:35:15;;;;;;;9.50;5.70;;;20.80;77.40;;;;;;4979142;28;20018;-70
2021/07/19 07:37:41;;;;;;;7.97;4.95;;;20.90;80.00;;;;;;4977106;28;20026;-71
2021/07/19 07:40:09;;;;;;;5.85;4.90;;;21.00;78.30;;;;;;4984770;28;20080;-70
2021/07/19 07:42:36;;;;;;;7.28;5.32;;;21.10;77.10;;;;;;4974663;28;20061;-72
2021/07/19 07:45:11;;;;;;;6.97;5.25;;;21.20;77.50;;;;;;4973939;28;20065;-70
2021/07/19 07:47:38;;;;;;;9.23;5.45;;;21.30;77.20;;;;;;4980221;28;20117;-72
2021/07/19 07:50:05;;;;;;;8.90;5.47;;;21.40;75.70;;;;;;4977390;28;20555;-70
2021/07/19 07:52:32;;;;;;;7.77;5.00;;;21.50;76.30;;;;;;4980263;28;20503;-72
2021/07/19 07:54:58;;;;;;;7.82;5.57;;;21.60;75.20;;;;;;4983892;28;20101;-72
2021/07/19 07:57:23;;;;;;;9.07;5.25;;;21.70;75.50;;;;;;4981377;28;20030;-72
2021/07/19 07:59:49;;;;;;;7.30;5.50;;;21.70;75.10;;;;;;4985527;28;20034;-72
2021/07/19 08:02:15;;;;;;;8.57;5.57;;;21.90;76.20;;;;;;4984506;28;20034;-73
2021/07/19 08:04:40;;;;;;;7.80;5.22;;;22.00;74.20;;;;;;4981441;28;20362;-72
2021/07/19 08:07:06;;;;;;;8.60;5.28;;;22.00;75.80;;;;;;4982185;28;20034;-70
2021/07/19 08:09:33;;;;;;;8.82;5.20;;;22.00;74.20;;;;;;4979087;28;20058;-73
2021/07/19 08:11:59;;;;;;;8.75;4.85;;;22.10;74.00;;;;;;4977389;28;20052;-73
2021/07/19 08:14:25;;;;;;;9.68;4.72;;;22.20;72.30;;;;;;4979938;28;20027;-72
2021/07/19 08:16:51;;;;;;;7.05;4.95;;;22.20;71.00;;;;;;4983182;28;20049;-71
2021/07/19 08:19:17;;;;;;;8.65;4.70;;;22.10;71.80;;;;;;4975756;28;20034;-72
2021/07/19 08:21:43;;;;;;;6.85;4.53;;;22.20;69.00;;;;;;4980588;28;20381;-72
2021/07/19 08:24:09;;;;;;;5.85;4.68;;;22.20;72.10;;;;;;4982859;28;20037;-70
2021/07/19 08:26:36;;;;;;;6.43;3.92;;;22.30;71.90;;;;;;4979310;28;20121;-73
2021/07/19 08:29:03;;;;;;;4.20;3.42;;;22.40;71.20;;;;;;4976903;28;20038;-72
2021/07/19 08:31:29;;;;;;;6.45;4.90;;;22.50;68.80;;;;;;4973115;28;20051;-73
2021/07/19 08:33:56;;;;;;;8.00;5.30;;;22.40;70.50;;;;;;4971373;28;20161;-73
2021/07/19 08:36:22;;;;;;;6.90;4.70;;;22.60;73.10;;;;;;4971552;28;20050;-74
2021/07/19 08:38:48;;;;;;;5.20;4.10;;;22.80;72.60;;;;;;4969562;28;20074;-73
2021/07/19 08:41:15;;;;;;;5.15;4.22;;;22.80;72.10;;;;;;4972361;28;20026;-73
2021/07/19 08:43:42;;;;;;;10.90;4.78;;;22.80;70.30;;;;;;4969812;28;20690;-73
2021/07/19 08:46:09;;;;;;;5.30;4.33;;;22.90;71.10;;;;;;4972077;28;20066;-71
2021/07/19 08:48:35;;;;;;;8.25;4.47;;;23.00;71.40;;;;;;4971767;28;20097;-72
2021/07/19 08:51:03;;;;;;;4.97;4.20;;;23.10;69.10;;;;;;4972270;28;20022;-72
2021/07/19 08:53:32;;;;;;;5.72;3.88;;;23.00;68.00;;;;;;4972031;28;20052;-72
2021/07/19 08:55:57;;;;;;;5.85;3.90;;;22.90;69.90;;;;;;4971177;28;20031;-72
2021/07/19 08:58:28;;;;;;;5.90;4.05;;;22.80;69.60;;;;;;4973401;28;20030;-72
2021/07/19 09:00:57;;;;;;;4.07;3.58;;;22.70;71.00;;;;;;4974410;28;20045;-72
2021/07/19 09:03:23;;;;;;;6.13;4.18;;;22.70;70.80;;;;;;4972598;28;20173;-73
2021/07/19 09:05:48;;;;;;;5.40;3.75;;;22.90;70.70;;;;;;4970199;28;20487;-73
2021/07/19 09:08:14;;;;;;;4.93;3.78;;;23.10;67.40;;;;;;4967877;28;20050;-72
2021/07/19 09:10:40;;;;;;;6.22;3.80;;;23.20;68.80;;;;;;4968890;28;20042;-71
2021/07/19 09:13:16;;;;;;;5.45;3.42;;;23.40;67.20;;;;;;4972595;28;20080;-73
2021/07/19 09:15:42;;;;;;;7.10;3.38;;;23.50;68.40;;;;;;4973695;28;20105;-73
2021/07/19 09:18:07;;;;;;;4.10;3.28;;;23.60;66.50;;;;;;4969395;28;20548;-73
2021/07/19 09:20:42;;;;;;;3.42;2.97;;;23.70;67.10;;;;;;4970524;28;20034;-73
2021/07/19 09:23:11;;;;;;;4.97;3.60;;;23.80;65.50;;;;;;4972812;28;20116;-73
2021/07/19 09:25:37;;;;;;;4.25;3.70;;;23.80;65.60;;;;;;4974060;28;20034;-73
2021/07/19 09:28:06;;;;;;;4.10;3.40;;;23.90;66.50;;;;;;4976773;28;20031;-72
2021/07/19 09:30:40;;;;;;;6.45;3.50;;;24.00;66.40;;;;;;4975372;28;20039;-73
2021/07/19 09:33:14;;;;;;;5.65;3.53;;;24.10;66.10;;;;;;4977480;28;20042;-74
2021/07/19 09:35:42;;;;;;;5.15;3.53;;;24.10;66.10;;;;;;4980084;28;20093;-73
2021/07/19 09:38:11;;;;;;;4.63;3.40;;;23.90;63.30;;;;;;4972706;28;20041;-72
2021/07/19 09:40:38;;;;;;;4.38;3.60;;;23.70;65.40;;;;;;4975966;28;20026;-73
2021/07/19 09:43:16;;;;;;;4.75;3.72;;;23.50;66.60;;;;;;4978207;28;21315;-72
2021/07/19 09:45:42;;;;;;;4.88;3.95;;;23.30;66.70;;;;;;4976143;28;21435;-73
2021/07/19 09:48:09;;;;;;;4.82;3.25;;;23.40;67.30;;;;;;4976178;28;20084;-73
2021/07/19 09:50:52;;;;;;;5.25;3.75;;;23.60;67.00;;;;;;4973899;28;20028;-73
2021/07/19 09:53:39;;;;;;;5.43;4.05;;;23.80;65.80;;;;;;4973462;28;20044;-73
2021/07/19 09:56:20;;;;;;;5.70;3.53;;;23.70;63.60;;;;;;4974493;28;20040;-72
2021/07/19 09:58:51;;;;;;;9.73;3.55;;;23.80;66.80;;;;;;4976038;28;20027;-74
2021/07/19 10:01:26;;;;;;;5.43;3.65;;;23.90;65.40;;;;;;4979161;28;20042;-73
2021/07/19 10:04:05;;;;;;;5.22;3.45;;;24.10;65.00;;;;;;4975680;28;20042;-73
2021/07/19 10:06:31;;;;;;;6.85;3.80;;;24.30;63.30;;;;;;4974522;28;20030;-73
2021/07/19 10:08:58;;;;;;;8.13;3.28;;;24.20;61.60;;;;;;4977306;28;20033;-72
2021/07/19 10:11:30;;;;;;;6.60;3.60;;;24.10;61.30;;;;;;4971852;28;20040;-73
2021/07/19 10:13:56;;;;;;;4.80;3.38;;;24.10;63.50;;;;;;4975391;28;20026;-72
2021/07/19 10:16:23;;;;;;;9.55;3.78;;;24.10;60.00;;;;;;4983120;28;20077;-73
2021/07/19 10:18:51;;;;;;;5.50;2.87;;;24.10;58.20;;;;;;4973458;28;20085;-73
2021/07/19 10:21:18;;;;;;;5.68;3.35;;;24.10;59.10;;;;;;4975245;28;20380;-73
2021/07/19 10:23:44;;;;;;;3.60;3.15;;;24.20;61.00;;;;;;4971405;28;20038;-73
2021/07/19 10:26:11;;;;;;;3.75;3.08;;;24.10;58.50;;;;;;4979557;28;20121;-73
2021/07/19 10:28:37;;;;;;;8.93;3.78;;;24.40;60.50;;;;;;4974876;28;20034;-73
2021/07/19 10:31:03;;;;;;;3.78;3.38;;;24.60;63.00;;;;;;4972848;28;20045;-73
2021/07/19 10:33:30;;;;;;;4.50;3.15;;;24.70;62.10;;;;;;4977265;28;20120;-73
2021/07/19 10:36:02;;;;;;;5.60;3.27;;;24.80;61.90;;;;;;4974669;28;20493;-72
2021/07/19 10:38:30;;;;;;;6.30;3.20;;;24.80;61.40;;;;;;4975287;28;20312;-71
2021/07/19 10:40:59;;;;;;;5.07;3.30;;;24.80;63.50;;;;;;4976409;28;20070;-71
2021/07/19 10:43:28;;;;;;;4.43;3.30;;;24.90;60.20;;;;;;4973725;28;20346;-74
2021/07/19 10:45:54;;;;;;;6.18;3.25;;;24.80;58.70;;;;;;4973253;28;20058;-73
2021/07/19 10:48:31;;;;;;;6.35;3.00;;;24.90;61.00;;;;;;4978600;28;20026;-73
2021/07/19 10:51:00;;;;;;;7.10;3.30;;;24.80;58.00;;;;;;4974477;28;20023;-73
2021/07/19 10:53:31;;;;;;;5.10;3.63;;;24.70;55.60;;;;;;4971594;28;20073;-72
2021/07/19 10:56:01;;;;;;;9.10;3.55;;;24.50;57.90;;;;;;4973741;28;20100;-71
2021/07/19 10:58:56;;;;;;;3.63;3.33;;;24.30;62.30;;;;;;4972074;28;20062;-72
2021/07/19 11:01:30;;;;;;;5.75;3.38;;;24.40;61.50;;;;;;4975115;28;20125;-74
2021/07/19 11:04:01;;;;;;;6.28;3.05;;;24.40;59.60;;;;;;4971921;28;20034;-74
2021/07/19 11:06:48;;;;;;;5.40;3.10;;;24.40;59.70;;;;;;4973270;28;20029;-74
2021/07/19 11:09:15;;;;;;;4.63;3.13;;;24.50;58.80;;;;;;4975842;28;20249;-75
2021/07/19 11:11:43;;;;;;;6.55;3.35;;;24.60;60.50;;;;;;4971868;28;20077;-73
2021/07/19 11:14:12;;;;;;;4.95;3.40;;;24.80;60.60;;;;;;4970818;28;20038;-74
2021/07/19 11:16:50;;;;;;;3.42;2.78;;;24.90;60.90;;;;;;4975231;28;20052;-74
2021/07/19 11:19:16;;;;;;;4.30;3.20;;;25.00;60.30;;;;;;4973326;28;20030;-73
2021/07/19 11:21:43;;;;;;;6.97;2.92;;;24.90;58.70;;;;;;4974061;28;20073;-72
2021/07/19 11:24:17;;;;;;;4.57;2.80;;;24.80;59.50;;;;;;4973959;28;20109;-73
2021/07/19 11:26:58;;;;;;;4.45;3.33;;;24.80;57.80;;;;;;4975423;28;20045;-73
2021/07/19 11:29:37;;;;;;;6.07;3.17;;;24.80;56.80;;;;;;4975732;28;20109;-73
2021/07/19 11:32:22;;;;;;;6.65;3.47;;;24.70;54.50;;;;;;4972123;28;20038;-73
2021/07/19 11:34:49;;;;;;;7.82;3.00;;;24.80;60.20;;;;;;4971517;28;20057;-73
2021/07/19 11:37:17;;;;;;;4.55;3.00;;;25.00;60.20;;;;;;4972239;28;20026;-73
2021/07/19 11:39:43;;;;;;;;;;;25.00;59.60;;;;;;4976058;28;20058;-72
2021/07/19 11:42:12;;;;;;;5.30;3.03;;;24.90;58.60;;;;;;4972817;28;19909;-72
2021/07/19 11:44:38;;;;;;;7.10;3.30;;;24.90;61.70;;;;;;4974194;28;20504;-72
2021/07/19 11:47:05;;;;;;;3.42;2.67;;;24.90;56.10;;;;;;4970518;28;20030;-73
2021/07/19 11:49:32;;;;;;;5.20;3.05;;;24.90;59.60;;;;;;4973956;28;20026;-73
2021/07/19 11:51:58;;;;;;;7.88;3.33;;;25.00;59.20;;;;;;4970640;28;20034;-74
2021/07/19 11:54:25;;;;;;;4.95;3.13;;;25.00;55.90;;;;;;4972654;28;20495;-72
2021/07/19 11:56:54;;;;;;;4.65;2.85;;;25.10;56.00;;;;;;4971620;28;20108;-72
2021/07/19 11:59:21;;;;;;;3.22;2.90;;;25.10;57.60;;;;;;4972178;28;20030;-73
2021/07/19 12:01:55;;;;;;;7.38;3.00;;;25.20;56.30;;;;;;4968646;28;20100;-73
2021/07/19 12:04:22;;;;;;;6.13;3.28;;;25.20;56.40;;;;;;4968594;28;20109;-74
2021/07/19 12:06:52;;;;;;;3.33;2.90;;;25.30;59.60;;;;;;4973047;28;20144;-73
2021/07/19 12:09:19;;;;;;;3.38;2.97;;;25.20;57.60;;;;;;4970180;28;20033;-73
2021/07/19 12:11:54;;;;;;;6.93;3.13;;;25.10;58.00;;;;;;4974854;28;20397;-72
2021/07/19 12:14:20;;;;;;;5.68;3.08;;;25.10;59.00;;;;;;4970232;28;20063;-72
2021/07/19 12:16:47;;;;;;;3.95;2.90;;;25.10;58.10;;;;;;4973855;28;20027;-74
2021/07/19 12:19:16;;;;;;;4.63;2.93;;;25.20;55.00;;;;;;4974372;28;20041;-72
2021/07/19 12:21:46;;;;;;;3.88;2.70;;;25.10;57.70;;;;;;4972461;28;20559;-73
2021/07/19 12:24:14;;;;;;;6.60;2.97;;;25.20;56.00;;;;;;4977063;28;20022;-74
2021/07/19 12:26:54;;;;;;;4.90;2.90;;;25.10;56.40;;;;;;4979042;28;20030;-74
2021/07/19 12:29:27;;;;;;;4.50;3.00;;;25.10;51.40;;;;;;4978161;28;20489;-73
2021/07/19 12:31:55;;;;;;;6.10;2.97;;;25.10;54.10;;;;;;4968539;28;20038;-73
2021/07/19 12:34:25;;;;;;;;;;;25.20;55.50;;;;;;4968288;28;20061;-73
2021/07/19 12:36:53;;;;;;;3.38;2.30;;;25.20;55.10;;;;;;4968734;28;21465;-73
2021/07/19 12:39:49;;;;;;;4.78;2.42;;;25.10;56.00;;;;;;4975014;28;20045;-72
2021/07/19 12:42:17;;;;;;;4.60;2.72;;;25.10;54.20;;;;;;4969542;28;20120;-74
2021/07/19 12:44:58;;;;;;;3.88;2.53;;;25.10;57.00;;;;;;4972591;28;20026;-73
2021/07/19 12:47:26;;;;;;;4.15;2.72;;;25.20;56.20;;;;;;4969865;28;20054;-71
2021/07/19 12:49:53;;;;;;;4.28;2.90;;;25.20;55.50;;;;;;4974011;28;20034;-72
2021/07/19 12:52:20;;;;;;;4.20;2.80;;;25.20;54.00;;;;;;4974500;28;21239;-73